createdAt,value
2022-10-31T00:08:56.435Z,11.10
2022-10-31T00:19:03.494Z,10.93
2022-10-31T00:29:05.581Z,10.40
2022-10-31T00:39:07.043Z,11.27
2022-10-31T00:49:08.513Z,10.40
2022-10-31T00:59:11.590Z,11.87
2022-10-31T01:09:13.194Z,10.80
2022-10-31T01:19:14.756Z,10.40
2022-10-31T01:29:16.210Z,10.77
2022-10-31T01:39:20.163Z,9.60
2022-10-31T01:49:47.003Z,10.43
2022-10-31T01:59:52.144Z,11.87
2022-10-31T02:09:54.957Z,10.43
2022-10-31T02:20:01.116Z,13.73
2022-10-31T02:30:15.298Z,8.00
2022-10-31T02:40:23.696Z,9.23
2022-10-31T02:51:06.250Z,8.97
2022-10-31T03:01:26.430Z,12.77
2022-10-31T03:11:46.233Z,10.87
2022-10-31T03:21:56.895Z,12.47
2022-10-31T03:32:08.773Z,13.60
2022-10-31T03:42:15.661Z,14.13
2022-10-31T03:52:29.608Z,12.80
2022-10-31T04:02:35.017Z,15.13
2022-10-31T04:12:38.724Z,13.67
2022-10-31T04:22:54.752Z,12.13
2022-10-31T04:32:56.398Z,27.40
2022-10-31T04:42:58.514Z,15.53
2022-10-31T04:53:00.374Z,15.63
2022-10-31T05:03:06.143Z,15.43
2022-10-31T05:13:08.966Z,20.83
2022-10-31T05:23:29.390Z,20.90
2022-10-31T05:33:31.062Z,21.60
2022-10-31T05:43:38.373Z,15.30
2022-10-31T05:53:41.716Z,16.23
2022-10-31T06:03:43.408Z,14.67
2022-10-31T06:13:45.257Z,15.57
2022-10-31T06:23:59.830Z,9.63
2022-10-31T06:34:21.594Z,12.70
2022-10-31T06:44:24.487Z,13.33
2022-10-31T06:54:34.877Z,14.17
2022-10-31T07:04:40.199Z,11.77
2022-10-31T07:14:42.694Z,11.63
2022-10-31T07:24:44.301Z,11.80
2022-10-31T07:35:04.871Z,11.23
2022-10-31T07:45:20.194Z,11.33
2022-10-31T07:55:41.743Z,10.23
2022-10-31T08:05:45.732Z,11.53
2022-10-31T08:16:08.447Z,13.50
2022-10-31T08:26:15.157Z,14.73
2022-10-31T08:36:20.762Z,13.23
2022-10-31T08:46:42.553Z,13.20
2022-10-31T08:56:48.347Z,14.20
2022-10-31T09:07:21.027Z,15.17
2022-10-31T09:17:25.089Z,15.23
2022-10-31T09:27:46.568Z,16.93
2022-10-31T09:37:48.242Z,15.63
2022-10-31T09:48:06.512Z,20.63
2022-10-31T09:58:21.179Z,31.23
2022-10-31T10:08:28.425Z,29.07
2022-10-31T10:19:13.573Z,21.70
2022-10-31T10:29:37.104Z,20.33
2022-10-31T10:39:44.257Z,22.30
2022-10-31T10:49:52.888Z,20.27
2022-10-31T10:59:54.410Z,19.70
2022-10-31T11:10:05.927Z,19.10
2022-10-31T11:20:16.368Z,21.27
2022-10-31T11:30:21.982Z,20.50
2022-10-31T11:40:27.431Z,26.73
2022-10-31T11:50:37.719Z,21.40
2022-10-31T13:44:27.997Z,43.73
2022-10-31T13:54:34.679Z,47.83
2022-10-31T14:04:47.928Z,38.93
2022-10-31T14:14:53.507Z,49.57
2022-10-31T14:24:54.962Z,27.03
2022-10-31T14:35:00.874Z,34.23
2022-10-31T14:45:25.739Z,32.50
2022-10-31T14:55:27.370Z,33.20
2022-10-31T15:05:29.741Z,39.57
2022-10-31T15:15:32.391Z,36.17
2022-10-31T15:25:35.781Z,38.03
2022-10-31T15:35:37.212Z,35.90
2022-10-31T15:45:38.653Z,38.57
2022-10-31T15:55:54.779Z,38.83
2022-10-31T16:06:01.797Z,38.77
2022-10-31T16:16:34.278Z,38.97
2022-10-31T16:26:34.467Z,41.20
2022-10-31T16:36:40.115Z,35.63
2022-10-31T16:46:41.680Z,42.57
2022-10-31T16:56:43.955Z,44.27
2022-10-31T17:06:46.304Z,51.30
2022-10-31T17:16:47.809Z,44.13
2022-10-31T17:26:49.327Z,44.07
2022-10-31T17:36:52.249Z,59.00
2022-10-31T17:46:53.754Z,48.30
2022-10-31T17:56:55.212Z,56.53
2022-10-31T18:06:56.651Z,47.67
2022-10-31T18:16:58.429Z,37.90
2022-10-31T18:26:59.997Z,40.77
2022-10-31T18:37:01.525Z,38.77
2022-10-31T18:47:03.000Z,44.67
2022-10-31T18:57:04.460Z,39.37
2022-10-31T19:07:05.884Z,39.93
2022-10-31T19:17:07.361Z,43.60
2022-10-31T19:27:12.034Z,44.70
2022-10-31T19:37:13.540Z,36.13
2022-10-31T19:47:15.128Z,32.20
2022-10-31T19:57:16.593Z,37.13
2022-10-31T20:07:18.055Z,35.33
2022-10-31T20:17:19.487Z,30.90
2022-10-31T20:27:20.954Z,35.63
2022-10-31T20:37:22.408Z,28.77
2022-10-31T20:47:25.885Z,29.70
2022-10-31T20:57:27.474Z,31.77
2022-10-31T21:07:30.861Z,31.80
2022-10-31T21:17:32.295Z,34.13
2022-10-31T21:27:33.783Z,41.57
2022-10-31T21:37:35.235Z,32.37
2022-10-31T21:47:36.673Z,35.13
2022-10-31T21:57:38.315Z,31.43
2022-10-31T22:07:39.766Z,33.07
2022-10-31T22:17:41.241Z,34.50
2022-10-31T22:27:42.791Z,33.87
2022-10-31T22:37:44.417Z,34.73
2022-10-31T22:47:45.860Z,34.23
2022-10-31T22:57:47.325Z,29.73
2022-10-31T23:07:48.768Z,38.63
2022-10-31T23:17:50.249Z,33.27
2022-10-31T23:27:51.843Z,27.83
2022-10-31T23:37:53.303Z,28.33
2022-10-31T23:47:54.756Z,29.00
2022-10-31T23:57:56.325Z,24.03
